createdAt,value
2017-08-18T00:00:39.004Z,65.70
2017-08-18T00:03:13.351Z,58.50
2017-08-18T00:05:48.745Z,57.90
2017-08-18T00:08:23.138Z,62.70
2017-08-18T00:14:01.485Z,57.72
2017-08-18T00:16:35.784Z,54.17
2017-08-18T00:19:10.106Z,60.92
2017-08-18T00:21:44.551Z,50.90
2017-08-18T00:24:19.283Z,54.08
2017-08-18T00:26:53.624Z,56.78
2017-08-18T00:29:28.116Z,48.78
2017-08-18T00:32:02.620Z,46.67
2017-08-18T00:34:39.301Z,48.63
2017-08-18T00:37:13.605Z,54.50
2017-08-18T00:42:45.540Z,58.10
2017-08-18T00:45:19.823Z,54.60
2017-08-18T00:47:54.386Z,51.05
2017-08-18T00:50:28.859Z,49.15
2017-08-18T00:53:03.267Z,57.70
2017-08-18T00:55:37.636Z,55.10
2017-08-18T00:58:12.149Z,56.22
2017-08-18T01:00:46.603Z,58.22
2017-08-18T01:03:21.740Z,55.30
2017-08-18T01:05:56.978Z,60.42
2017-08-18T01:08:32.459Z,59.65
2017-08-18T01:11:07.553Z,63.20
2017-08-18T01:13:42.200Z,57.10
2017-08-18T01:16:16.686Z,63.38
2017-08-18T01:18:51.165Z,62.53
2017-08-18T01:21:25.660Z,60.28
2017-08-18T01:24:00.041Z,71.20
2017-08-18T01:26:34.358Z,64.87
2017-08-18T01:29:08.689Z,67.28
2017-08-18T01:31:43.028Z,60.92
2017-08-18T01:34:17.369Z,63.63
2017-08-18T01:36:51.925Z,58.50
2017-08-18T01:39:27.097Z,68.18
2017-08-18T01:42:01.852Z,60.75
2017-08-18T01:44:36.241Z,68.20
2017-08-18T01:47:11.613Z,61.22
2017-08-18T01:49:46.817Z,68.07
2017-08-18T01:52:21.306Z,73.53
2017-08-18T01:54:55.785Z,65.78
2017-08-18T01:57:30.185Z,70.85
2017-08-18T02:00:04.718Z,69.20
2017-08-18T02:02:39.160Z,70.57
2017-08-18T02:05:13.475Z,84.68
2017-08-18T02:07:48.340Z,70.75
2017-08-18T02:10:22.801Z,80.85
2017-08-18T02:12:57.130Z,71.00
2017-08-18T02:15:31.596Z,77.65
2017-08-18T02:18:06.210Z,88.28
2017-08-18T02:20:40.532Z,82.75
2017-08-18T02:23:15.816Z,73.55
2017-08-18T02:25:50.336Z,86.25
2017-08-18T02:28:24.885Z,75.32
2017-08-18T02:31:00.189Z,83.25
2017-08-18T02:33:35.448Z,81.78
2017-08-18T02:36:09.897Z,80.57
2017-08-18T02:38:44.437Z,72.30
2017-08-18T02:41:18.916Z,81.70
2017-08-18T02:43:54.298Z,75.20
2017-08-18T02:46:28.779Z,72.35
2017-08-18T02:49:03.473Z,81.07
2017-08-18T02:51:37.984Z,79.25
2017-08-18T02:54:12.503Z,81.07
2017-08-18T02:56:46.860Z,73.47
2017-08-18T02:59:21.516Z,74.57
2017-08-18T03:01:55.977Z,75.25
2017-08-18T03:04:30.521Z,78.75
2017-08-18T03:07:04.862Z,69.65
2017-08-18T03:09:39.201Z,72.07
2017-08-18T03:12:13.708Z,67.25
2017-08-18T03:14:48.100Z,74.43
2017-08-18T03:17:22.647Z,68.32
2017-08-18T03:19:57.116Z,70.43
2017-08-18T03:22:31.441Z,78.03
2017-08-18T03:25:05.885Z,68.35
2017-08-18T03:27:40.508Z,75.10
2017-08-18T03:30:14.809Z,66.18
2017-08-18T03:32:49.295Z,67.82
2017-08-18T03:35:23.752Z,78.12
2017-08-18T03:37:58.153Z,69.03
2017-08-18T03:40:32.522Z,63.42
2017-08-18T03:43:07.784Z,71.32
2017-08-18T03:45:42.160Z,67.18
2017-08-18T03:48:16.589Z,65.40
2017-08-18T03:50:51.098Z,78.12
2017-08-18T03:53:25.445Z,70.12
2017-08-18T03:55:59.809Z,63.53
2017-08-18T03:58:34.388Z,57.38
2017-08-18T04:01:08.661Z,56.42
2017-08-18T04:03:43.025Z,55.40
2017-08-18T04:06:17.301Z,58.13
2017-08-18T04:08:51.609Z,60.12
2017-08-18T04:11:26.032Z,58.58
2017-08-18T04:14:01.172Z,57.88
2017-08-18T04:16:35.624Z,58.42
2017-08-18T04:19:10.824Z,63.58
2017-08-18T04:21:45.321Z,60.20
2017-08-18T04:24:19.773Z,55.20
2017-08-18T04:26:54.177Z,51.88
2017-08-18T04:29:28.482Z,51.88
2017-08-18T04:32:02.877Z,55.72
2017-08-18T04:34:37.242Z,53.90
2017-08-18T04:37:11.584Z,51.42
2017-08-18T04:39:45.976Z,47.90
2017-08-18T04:42:21.220Z,51.33
2017-08-18T04:44:55.668Z,47.10
2017-08-18T04:47:30.077Z,47.03
2017-08-18T04:50:04.537Z,49.63
2017-08-18T04:52:39.721Z,51.03
2017-08-18T04:55:14.157Z,53.20
2017-08-18T04:57:48.749Z,44.20
2017-08-18T05:00:23.029Z,49.13
2017-08-18T05:02:57.517Z,46.95
2017-08-18T05:05:32.708Z,49.70
2017-08-18T05:08:07.205Z,45.45
2017-08-18T05:10:41.658Z,43.80
2017-08-18T05:13:16.011Z,51.47
2017-08-18T05:15:50.287Z,61.85
2017-08-18T05:18:26.392Z,44.53
2017-08-18T05:21:00.672Z,42.75
2017-08-18T05:23:35.149Z,43.33
2017-08-18T05:26:09.600Z,43.05
2017-08-18T05:28:43.956Z,45.78
2017-08-18T05:31:19.154Z,43.40
2017-08-18T05:33:53.774Z,42.22
2017-08-18T05:36:28.121Z,42.65
2017-08-18T05:39:02.597Z,40.00
2017-08-18T05:41:37.078Z,44.17
2017-08-18T05:44:11.717Z,37.88
2017-08-18T05:46:46.233Z,41.65
2017-08-18T05:49:20.550Z,42.97
2017-08-18T05:51:54.949Z,37.30
2017-08-18T05:54:29.436Z,42.62
2017-08-18T05:57:03.887Z,42.25
2017-08-18T05:59:39.129Z,34.88
2017-08-18T06:02:13.522Z,40.85
2017-08-18T06:04:47.985Z,39.78
2017-08-18T06:07:22.354Z,37.25
2017-08-18T06:09:56.745Z,39.42
2017-08-18T06:12:31.030Z,43.97
2017-08-18T06:15:05.792Z,42.03
2017-08-18T06:17:40.272Z,37.85
2017-08-18T06:20:15.409Z,45.78
2017-08-18T06:22:49.811Z,43.75
2017-08-18T06:25:24.329Z,43.22
2017-08-18T06:27:58.661Z,44.78
2017-08-18T06:30:33.173Z,44.05
2017-08-18T06:33:08.185Z,43.60
2017-08-18T06:35:42.844Z,42.38
2017-08-18T06:38:17.949Z,45.42
2017-08-18T06:40:52.481Z,39.83
2017-08-18T06:43:26.921Z,38.97
2017-08-18T06:46:01.421Z,38.97
2017-08-18T06:48:35.849Z,39.35
2017-08-18T06:51:10.377Z,35.33
2017-08-18T06:53:44.798Z,35.97
2017-08-18T06:56:19.280Z,38.30
2017-08-18T06:58:53.722Z,36.53
2017-08-18T07:01:28.065Z,35.30
2017-08-18T07:04:02.457Z,35.65
2017-08-18T07:06:36.913Z,32.65
2017-08-18T07:09:11.268Z,34.85
2017-08-18T07:11:45.709Z,35.60
2017-08-18T07:14:20.145Z,35.30
2017-08-18T07:16:54.500Z,31.33
2017-08-18T07:19:28.953Z,33.55
2017-08-18T07:22:03.554Z,34.25
2017-08-18T07:24:38.013Z,35.30
2017-08-18T07:27:12.571Z,35.38
2017-08-18T07:29:47.009Z,31.30
2017-08-18T07:32:21.377Z,32.55
2017-08-18T07:34:55.989Z,32.70
2017-08-18T07:37:30.461Z,31.30
2017-08-18T07:40:05.012Z,31.25
2017-08-18T07:42:39.368Z,32.55
2017-08-18T07:45:13.796Z,28.35
2017-08-18T07:47:49.015Z,30.23
2017-08-18T07:50:23.350Z,31.48
2017-08-18T07:52:58.569Z,26.50
2017-08-18T07:55:33.118Z,29.65
2017-08-18T07:58:07.517Z,29.60
2017-08-18T08:00:41.945Z,31.33
2017-08-18T08:03:16.430Z,27.55
2017-08-18T08:05:50.926Z,28.48
2017-08-18T08:08:25.230Z,25.62
2017-08-18T08:10:59.545Z,26.40
2017-08-18T08:13:34.089Z,25.88
2017-08-18T08:16:08.471Z,25.75
2017-08-18T08:18:43.026Z,24.55
2017-08-18T08:21:17.491Z,25.17
2017-08-18T08:23:51.985Z,22.17
2017-08-18T08:26:26.316Z,23.17
2017-08-18T08:29:00.814Z,28.83
2017-08-18T08:31:35.113Z,23.27
2017-08-18T08:34:09.744Z,22.85
2017-08-18T08:36:44.949Z,23.33
2017-08-18T08:39:19.510Z,23.90
2017-08-18T08:41:54.001Z,27.30
2017-08-18T08:44:28.312Z,25.55
2017-08-18T08:47:03.425Z,23.80
2017-08-18T08:49:38.069Z,24.70
2017-08-18T08:52:12.489Z,26.00
2017-08-18T08:54:47.022Z,23.75
2017-08-18T08:57:21.404Z,25.70
2017-08-18T08:59:55.766Z,26.60
2017-08-18T09:02:30.211Z,26.35
2017-08-18T09:05:04.849Z,26.80
2017-08-18T09:07:39.233Z,25.50
2017-08-18T09:10:13.727Z,26.48
2017-08-18T09:12:48.129Z,24.33
2017-08-18T09:15:22.705Z,26.02
2017-08-18T09:17:57.094Z,23.75
2017-08-18T09:20:31.438Z,20.48
2017-08-18T09:23:05.839Z,23.08
2017-08-18T09:25:40.512Z,21.83
2017-08-18T09:28:15.776Z,21.15
2017-08-18T09:30:50.176Z,20.50
2017-08-18T09:33:24.656Z,19.45
2017-08-18T09:35:59.199Z,19.07
2017-08-18T09:38:33.652Z,16.67
2017-08-18T09:41:08.108Z,16.80
2017-08-18T09:43:42.408Z,17.67
2017-08-18T09:46:16.728Z,15.60
2017-08-18T09:49:02.870Z,18.62
2017-08-18T09:51:49.028Z,17.58
2017-08-18T09:54:35.024Z,17.80
2017-08-18T09:57:21.337Z,17.05
2017-08-18T09:59:55.837Z,14.85
2017-08-18T10:02:30.321Z,14.77
2017-08-18T10:05:04.498Z,15.32
2017-08-18T10:07:38.963Z,16.60
2017-08-18T10:10:13.129Z,13.87
2017-08-18T10:12:47.496Z,16.50
2017-08-18T10:15:21.741Z,13.90
2017-08-18T10:17:55.956Z,15.70
2017-08-18T10:20:30.116Z,16.70
2017-08-18T10:23:04.376Z,14.15
2017-08-18T10:25:39.373Z,15.15
2017-08-18T10:28:13.660Z,15.37
2017-08-18T10:30:47.889Z,13.80
2017-08-18T10:33:22.370Z,14.80
2017-08-18T10:35:57.260Z,13.80
2017-08-18T10:38:31.476Z,14.32
2017-08-18T10:41:05.574Z,14.82
2017-08-18T10:43:40.747Z,13.52
2017-08-18T10:46:15.045Z,13.73
2017-08-18T10:48:50.320Z,13.77
2017-08-18T10:51:24.612Z,17.87
2017-08-18T10:53:58.947Z,14.90
2017-08-18T10:56:33.476Z,15.60
2017-08-18T10:59:07.671Z,14.52
2017-08-18T11:01:41.973Z,15.20
2017-08-18T11:04:16.200Z,14.50
2017-08-18T11:06:51.224Z,15.52
2017-08-18T11:09:25.669Z,14.90
2017-08-18T11:11:59.934Z,14.65
2017-08-18T11:14:34.066Z,15.20
2017-08-18T11:17:08.198Z,14.70
2017-08-18T11:19:42.600Z,13.03
2017-08-18T11:22:16.697Z,14.27
2017-08-18T11:24:51.135Z,18.27
2017-08-18T11:27:25.364Z,15.33
2017-08-18T11:30:00.293Z,15.33
2017-08-18T11:32:35.432Z,13.70
2017-08-18T11:35:10.462Z,14.87
2017-08-18T11:37:45.365Z,14.10
2017-08-18T11:40:20.361Z,14.23
2017-08-18T11:42:54.679Z,13.47
2017-08-18T11:45:28.924Z,13.63
2017-08-18T11:48:03.173Z,12.70
2017-08-18T11:50:37.614Z,13.43
2017-08-18T11:53:12.165Z,13.57
2017-08-18T11:55:46.284Z,13.63
2017-08-18T11:58:21.184Z,13.53
2017-08-18T12:00:55.525Z,15.17
2017-08-18T12:03:29.717Z,14.93
2017-08-18T12:06:03.912Z,15.40
2017-08-18T12:08:38.091Z,13.73
2017-08-18T12:11:12.425Z,12.60
2017-08-18T12:13:46.520Z,13.80
2017-08-18T12:16:20.825Z,13.50
2017-08-18T12:18:55.054Z,14.60
2017-08-18T12:21:29.518Z,14.40
2017-08-18T12:24:03.658Z,14.73
2017-08-18T12:26:38.119Z,12.73
2017-08-18T12:29:12.313Z,14.00
2017-08-18T12:31:46.565Z,14.00
2017-08-18T12:34:20.700Z,13.67
2017-08-18T12:36:54.874Z,14.60
2017-08-18T12:39:29.223Z,14.03
2017-08-18T12:42:03.365Z,14.73
2017-08-18T12:44:37.765Z,14.60
2017-08-18T12:47:11.909Z,16.25
2017-08-18T12:49:46.144Z,14.10
2017-08-18T12:52:20.284Z,14.87
2017-08-18T12:54:54.585Z,14.50
2017-08-18T12:57:29.514Z,14.83
2017-08-18T13:00:04.565Z,15.23
2017-08-18T13:02:38.657Z,14.90
2017-08-18T13:05:12.794Z,14.87
2017-08-18T13:07:47.717Z,14.48
2017-08-18T13:10:22.065Z,16.97
2017-08-18T13:12:56.967Z,15.57
2017-08-18T13:15:31.291Z,16.50
2017-08-18T13:18:05.599Z,14.97
2017-08-18T13:20:40.518Z,20.60
2017-08-18T13:23:15.562Z,16.23
2017-08-18T13:25:49.878Z,15.90
2017-08-18T13:28:24.788Z,15.37
2017-08-18T13:30:59.286Z,16.30
2017-08-18T13:33:33.412Z,15.77
2017-08-18T13:36:07.561Z,15.80
2017-08-18T13:38:41.755Z,15.07
2017-08-18T13:41:16.833Z,17.50
2017-08-18T13:43:50.997Z,15.23
2017-08-18T13:46:25.354Z,14.53
2017-08-18T13:48:59.506Z,15.53
2017-08-18T13:51:33.748Z,14.53
2017-08-18T13:54:08.064Z,14.63
2017-08-18T13:56:42.414Z,15.57
2017-08-18T13:59:16.712Z,15.77
2017-08-18T14:01:51.897Z,15.27
2017-08-18T14:04:25.985Z,15.57
2017-08-18T14:07:00.270Z,17.00
2017-08-18T14:09:34.507Z,15.43
2017-08-18T14:12:08.773Z,17.23
2017-08-18T14:14:43.059Z,15.90
2017-08-18T14:17:17.353Z,15.57
2017-08-18T14:19:51.701Z,16.60
2017-08-18T14:22:25.955Z,16.00
2017-08-18T14:25:05.950Z,16.30
2017-08-18T14:27:45.138Z,16.03
2017-08-18T14:30:20.446Z,17.47
2017-08-18T14:32:54.812Z,16.30
2017-08-18T14:35:29.450Z,16.13
2017-08-18T14:38:03.739Z,17.17
2017-08-18T14:40:38.112Z,16.60
2017-08-18T14:43:12.607Z,18.33
2017-08-18T14:45:47.041Z,14.83
2017-08-18T14:48:22.139Z,17.43
2017-08-18T14:50:56.520Z,16.47
2017-08-18T14:53:31.203Z,16.90
2017-08-18T14:56:05.898Z,17.10
2017-08-18T14:58:41.124Z,17.70
2017-08-18T15:01:15.813Z,16.77
2017-08-18T15:03:50.177Z,16.80
2017-08-18T15:06:24.877Z,18.00
2017-08-18T15:08:59.329Z,19.17
2017-08-18T15:11:33.917Z,19.40
2017-08-18T15:14:09.193Z,18.47
2017-08-18T15:16:44.464Z,18.47
2017-08-18T15:19:19.578Z,17.47
2017-08-18T15:21:54.069Z,17.20
2017-08-18T15:24:28.568Z,17.27
2017-08-18T15:27:03.021Z,17.47
2017-08-18T15:29:37.520Z,16.60
2017-08-18T15:32:12.056Z,18.57
2017-08-18T15:34:46.476Z,17.00
2017-08-18T15:37:21.125Z,17.80
2017-08-18T15:39:55.412Z,16.50
2017-08-18T15:42:29.753Z,17.50
2017-08-18T15:45:04.122Z,18.57
2017-08-18T15:47:38.481Z,18.20
2017-08-18T15:50:13.737Z,18.70
2017-08-18T15:52:48.330Z,18.80
2017-08-18T15:55:22.657Z,17.10
2017-08-18T15:57:57.526Z,19.55
2017-08-18T16:00:31.829Z,18.90
2017-08-18T16:03:06.561Z,18.93
2017-08-18T16:05:40.993Z,18.35
2017-08-18T16:08:15.316Z,20.13
2017-08-18T16:10:50.382Z,19.70
2017-08-18T16:13:24.881Z,18.67
2017-08-18T16:15:59.897Z,18.80
2017-08-18T16:18:34.464Z,20.27
2017-08-18T16:21:08.793Z,19.23
2017-08-18T16:23:43.378Z,18.80
2017-08-18T16:26:17.831Z,19.63
2017-08-18T16:28:52.378Z,21.93
2017-08-18T16:31:26.741Z,21.93
2017-08-18T16:34:01.142Z,20.23
2017-08-18T16:36:36.989Z,21.93
2017-08-18T16:39:11.308Z,19.40
2017-08-18T16:41:45.605Z,19.85
2017-08-18T16:44:20.090Z,21.17
2017-08-18T16:46:54.596Z,21.37
2017-08-18T16:49:29.133Z,21.15
2017-08-18T16:52:03.497Z,22.50
2017-08-18T16:54:37.837Z,21.00
2017-08-18T16:57:12.288Z,22.37
2017-08-18T16:59:47.353Z,20.98
2017-08-18T17:02:21.694Z,20.03
2017-08-18T17:04:56.124Z,22.20
2017-08-18T17:07:30.653Z,20.33
2017-08-18T17:10:05.301Z,22.15
2017-08-18T17:12:39.618Z,22.55
2017-08-18T17:15:14.226Z,23.38
2017-08-18T17:17:48.576Z,22.30
2017-08-18T17:20:23.063Z,23.75
2017-08-18T17:22:57.518Z,23.77
2017-08-18T17:25:32.949Z,23.35
2017-08-18T17:28:08.204Z,22.65
2017-08-18T17:33:23.334Z,23.23
2017-08-18T17:35:57.809Z,24.52
2017-08-18T17:38:32.305Z,23.90
2017-08-18T17:41:06.656Z,26.10
2017-08-18T17:43:41.094Z,27.45
2017-08-18T17:46:15.661Z,24.87
2017-08-18T17:48:49.993Z,25.80
2017-08-18T17:51:24.412Z,25.67
2017-08-18T17:53:58.847Z,25.70
2017-08-18T17:56:36.921Z,27.67
2017-08-18T17:59:11.294Z,27.87
2017-08-18T18:01:46.569Z,27.15
2017-08-18T18:04:20.930Z,26.92
2017-08-18T18:06:55.363Z,24.95
2017-08-18T18:09:29.897Z,25.70
2017-08-18T18:12:04.217Z,25.95
2017-08-18T18:14:39.337Z,26.17
2017-08-18T18:17:13.744Z,28.38
2017-08-18T18:19:48.893Z,27.48
2017-08-18T18:22:23.426Z,25.10
2017-08-18T18:24:57.929Z,27.08
2017-08-18T18:27:32.434Z,29.45
2017-08-18T18:30:06.801Z,27.10
2017-08-18T18:32:41.245Z,27.15
2017-08-18T18:35:15.976Z,28.87
2017-08-18T18:37:50.450Z,27.52
2017-08-18T18:40:24.868Z,27.10
2017-08-18T18:42:59.193Z,26.70
2017-08-18T18:45:33.693Z,28.10
2017-08-18T18:48:08.102Z,26.65
2017-08-18T18:50:42.417Z,26.08
2017-08-18T18:53:16.897Z,27.25
2017-08-18T18:55:51.396Z,27.27
2017-08-18T18:58:25.884Z,31.87
2017-08-18T19:01:01.143Z,30.70
2017-08-18T19:03:36.291Z,29.02
2017-08-18T19:06:10.710Z,32.63
2017-08-18T19:08:45.383Z,34.78
2017-08-18T19:11:19.869Z,35.13
2017-08-18T19:13:54.370Z,32.78
2017-08-18T19:16:29.469Z,34.15
2017-08-18T19:19:04.541Z,48.75
2017-08-18T19:21:39.070Z,50.78
2017-08-18T19:24:13.674Z,28.58
2017-08-18T19:26:48.007Z,32.03
2017-08-18T19:29:22.547Z,32.70
2017-08-18T19:31:56.893Z,34.13
2017-08-18T19:34:31.213Z,39.78
2017-08-18T19:37:06.772Z,40.30
2017-08-18T19:39:41.253Z,41.97
2017-08-18T19:42:15.760Z,37.70
2017-08-18T19:44:50.081Z,33.28
2017-08-18T19:47:24.403Z,40.35
2017-08-18T19:49:58.772Z,38.55
2017-08-18T19:52:33.130Z,39.25
2017-08-18T19:55:07.460Z,40.70
2017-08-18T19:57:41.832Z,41.97
2017-08-18T20:00:16.202Z,36.05
2017-08-18T20:02:50.633Z,42.60
2017-08-18T20:05:25.152Z,38.58
2017-08-18T20:07:59.505Z,52.20
2017-08-18T20:10:33.884Z,41.78
2017-08-18T20:13:08.186Z,37.83
2017-08-18T20:15:42.798Z,31.67
2017-08-18T20:18:17.294Z,24.17
2017-08-18T20:20:51.632Z,24.50
2017-08-18T20:23:26.109Z,26.95
2017-08-18T20:26:00.440Z,29.98
2017-08-18T20:28:34.895Z,30.95
2017-08-18T20:31:09.315Z,30.75
2017-08-18T20:33:43.593Z,35.42
2017-08-18T20:36:18.185Z,35.15
2017-08-18T20:38:52.528Z,32.95
2017-08-18T20:41:26.848Z,33.30
2017-08-18T20:44:01.310Z,39.38
2017-08-18T20:46:35.801Z,34.63
2017-08-18T20:49:10.249Z,37.25
2017-08-18T20:51:44.953Z,34.83
2017-08-18T20:54:19.368Z,36.70
2017-08-18T20:56:53.684Z,35.75
2017-08-18T20:59:28.112Z,37.03
2017-08-18T21:02:02.557Z,35.17
2017-08-18T21:04:36.882Z,34.17
2017-08-18T21:07:11.364Z,35.58
2017-08-18T21:09:45.835Z,30.20
2017-08-18T21:12:20.181Z,29.83
2017-08-18T21:14:54.633Z,32.45
2017-08-18T21:17:29.112Z,31.90
2017-08-18T21:20:03.567Z,29.95
2017-08-18T21:22:38.137Z,31.48
2017-08-18T21:25:14.468Z,29.23
2017-08-18T21:27:52.527Z,32.08
2017-08-18T21:30:26.973Z,32.53
2017-08-18T21:33:01.275Z,42.38
2017-08-18T21:35:35.642Z,34.72
2017-08-18T21:38:09.982Z,30.55
2017-08-18T21:40:44.645Z,35.70
2017-08-18T21:43:18.924Z,31.45
2017-08-18T21:45:53.290Z,28.65
2017-08-18T21:48:27.577Z,39.88
2017-08-18T21:51:02.864Z,30.10
2017-08-18T21:53:37.342Z,30.62
2017-08-18T21:56:11.702Z,27.17
2017-08-18T21:58:45.989Z,26.08
2017-08-18T22:01:20.457Z,30.37
2017-08-18T22:03:55.554Z,32.90
2017-08-18T22:06:30.125Z,31.45
2017-08-18T22:09:04.467Z,26.17
2017-08-18T22:11:38.897Z,31.85
2017-08-18T22:14:13.294Z,30.67
2017-08-18T22:16:47.684Z,29.83
2017-08-18T22:19:22.061Z,37.05
2017-08-18T22:21:56.505Z,28.10
2017-08-18T22:24:30.897Z,31.80
2017-08-18T22:27:05.374Z,27.85
2017-08-18T22:29:39.821Z,29.55
2017-08-18T22:32:14.144Z,28.08
2017-08-18T22:34:48.647Z,31.02
2017-08-18T22:37:23.524Z,32.85
2017-08-18T22:39:58.005Z,28.12
2017-08-18T22:42:32.333Z,30.17
2017-08-18T22:45:06.794Z,28.60
2017-08-18T22:47:41.281Z,32.47
2017-08-18T22:50:15.588Z,28.90
2017-08-18T22:52:49.871Z,26.75
2017-08-18T22:55:24.259Z,22.67
2017-08-18T22:57:58.679Z,30.73
2017-08-18T23:00:34.042Z,31.62
2017-08-18T23:03:09.229Z,27.70
2017-08-18T23:05:44.500Z,30.37
2017-08-18T23:08:18.997Z,33.35
2017-08-18T23:10:53.425Z,32.22
2017-08-18T23:13:27.790Z,27.17
2017-08-18T23:16:02.210Z,29.95
2017-08-18T23:18:36.648Z,26.40
2017-08-18T23:21:11.106Z,34.75
2017-08-18T23:23:45.657Z,28.77
2017-08-18T23:26:20.013Z,28.10
2017-08-18T23:28:54.481Z,30.98
2017-08-18T23:31:28.972Z,32.58
2017-08-18T23:34:03.446Z,28.77
2017-08-18T23:36:37.937Z,33.38
2017-08-18T23:39:13.052Z,30.05
2017-08-18T23:41:50.435Z,36.25
2017-08-18T23:44:25.990Z,42.20
2017-08-18T23:47:00.290Z,40.80
2017-08-18T23:49:34.632Z,37.22
2017-08-18T23:52:09.090Z,34.70
2017-08-18T23:54:43.769Z,31.75
2017-08-18T23:57:18.251Z,30.23
2017-08-18T23:59:52.688Z,32.35
